プンタアレナス の空港の天気 - METARとTAF

プンタアレナス空港 ( SCCI / PUQ ) - チリ プンタアレナス
飛行場実況気象(Metar)
観測時間08/25 15:00 CLT (08/25 19:00 UTC)
風向・風速北北西 5m/s
視程10km以上
天気現象
少しの雲 雲底高度 1220m
全天の8割程度の雲 雲底高度 6100m
気温9℃
湿度57%
気圧1006hPa
METARSCCI 251900Z 34009KT 9999 FEW040 BKN200 09/01 Q1006 NOSIG
過去の天気等 Google飛行場航空写真 Wunderground天気予報

過去48時間のMETAR

飛行場予報(TAF)
発表時間: 8/25 13:17 CLT (8/25 17:17 UTC)
予報対象時間: 25日14時 CLT ~ 26日14時 CLT
風向・風速北西 8m/s
視程10km以上
少しの雲 雲底高度 1220m
25日19時 CLT ~ 25日21時 CLT に徐々に
風向・風速北北東 8m/s 瞬間風速 13m/s
25日23時 CLT ~ 26日4時 CLT に一時的に
風向・風速北東 14m/s 瞬間風速 20m/s
26日5時 CLT ~ 26日7時 CLT に徐々に
風向・風速西北西 10m/s 瞬間風速 15m/s
視程8000m
天気現象弱いしゅう雨
少しの雲 雲底高度 760m
全天の8割程度の雲 雲底高度 1370m
26日10時 CLT ~ 26日12時 CLT に徐々に
風向・風速西南西 13m/s 瞬間風速 18m/s
視程10km以上
天気現象運行に影響にある天気現象が終了
少しの雲 雲底高度 1220m
TAF COR SCCI 251717Z 2518/2618 32015KT 9999 FEW040 TN03/2612Z TX09/2518Z
BECMG 2523/2601 02015G25KT
TEMPO 2603/2608 05028G38KT
BECMG 2609/2611 30020G30KT 8000 -SHRA FEW025 BKN045
BECMG 2614/2616 25025G35KT 9999 NSW FEW040